Ayr Alva Beach, Queensland

1:51 AM AEST on July 31, 2016 (GMT +1000)
AYR Live Weather | | Change Station

Elev 39 ft 19.58 °S, 147.42 °E | Updated 3 seconds ago

Mostly Cloudy
Mostly Cloudy
63.3 °F
Feels Like 63.3 °F
N
2.0
Wind Variable Wind from SSE
Gusts 3.0 mph

Today
High -- | Low -- °F
--% Chance of Precip.
Yesterday
High -- | Low -- °F
Precip. -- in
Pressure 30.01 in
Visibility 6.2 miles
Clouds Mostly Cloudy 6500 ft
Dew Point 60 °F
Humidity 90%
Rainfall 0.00 in
Snow Depth Not available.
6:39 AM 5:53 PM
Waning Crescent, 12% visible
METAR YBTL 301530Z AUTO 17006KT 9999 // BKN065 19/16 Q1016
Pressure 30.01 in
Visibility 6.2 miles
Clouds Mostly Cloudy 6500 ft
Dew Point 60 °F
Humidity 90%
Rainfall 0.00 in
Snow Depth Not available.
6:39 AM 5:53 PM
Waning Crescent, 12% visible
METAR YBTL 301530Z AUTO 17006KT 9999 // BKN065 19/16 Q1016

10-Day Weather Forecast

Almanac

Astronomy

Jul. 31, 2016 Rise Set
Actual Time
Civil Twilight
Nautical Twilight
Astronomical Twilight
Moon
Length of Visible Light
Length of Day
Tomorrow will be .
, % of the Moon is Illuminated

Today's Extremes

Country Highs Country Lows

Community

WunderPhotos

Upload Photos

1,928,588 photos uploaded!

WunderBlog® & News

Nearby

Air Quality

  Air Quality AQ Index Pollutant
Not available.

Snow Depth

Station Depth Elevation

Earthquake Activity

City Distance Mag. Time & Date
Minimum magnitude displayed is 2.5.

Coastal Water Temperatures

Place Temperature

Stations

Nearby Weather Stations

Station Location Temp. Windchill Dew Point Humidity Wind Precip. Elev Updated Type